createdAt,value
2022-09-28T00:01:28.736Z,100.00
2022-09-28T00:04:34.354Z,100.00
2022-09-28T00:07:39.712Z,100.00
2022-09-28T00:10:45.761Z,100.00
2022-09-28T00:13:52.631Z,100.00
2022-09-28T00:16:58.050Z,100.00
2022-09-28T00:20:05.390Z,100.00
2022-09-28T00:23:10.715Z,100.00
2022-09-28T00:26:16.222Z,100.00
2022-09-28T00:29:23.984Z,100.00
2022-09-28T00:32:30.048Z,100.00
2022-09-28T00:35:35.588Z,100.00
2022-09-28T00:38:41.039Z,100.00
2022-09-28T00:41:47.097Z,100.00
2022-09-28T00:44:52.731Z,100.00
2022-09-28T00:48:00.438Z,100.00
2022-09-28T00:51:11.156Z,100.00
2022-09-28T00:54:17.282Z,100.00
2022-09-28T00:57:24.048Z,100.00
2022-09-28T01:00:29.443Z,100.00
2022-09-28T01:03:36.444Z,100.00
2022-09-28T01:06:41.835Z,100.00
2022-09-28T01:09:47.589Z,100.00
2022-09-28T01:12:52.923Z,100.00
2022-09-28T01:16:08.171Z,100.00
2022-09-28T01:19:23.517Z,100.00
2022-09-28T01:22:33.745Z,100.00
2022-09-28T01:25:41.863Z,100.00
2022-09-28T01:28:50.698Z,100.00
2022-09-28T01:32:02.546Z,100.00
2022-09-28T01:35:12.829Z,100.00
2022-09-28T01:38:21.870Z,100.00
2022-09-28T01:41:30.386Z,100.00
2022-09-28T01:44:39.979Z,100.00
2022-09-28T01:47:47.855Z,100.00
2022-09-28T01:50:57.458Z,100.00
2022-09-28T01:54:07.823Z,100.00
2022-09-28T01:57:15.585Z,100.00
2022-09-28T02:00:21.828Z,100.00
2022-09-28T02:03:32.570Z,100.00
2022-09-28T02:06:43.003Z,100.00
2022-09-28T02:09:50.386Z,100.00
2022-09-28T02:12:58.517Z,100.00
2022-09-28T02:16:06.211Z,100.00
2022-09-28T02:19:14.050Z,100.00
2022-09-28T02:22:25.782Z,100.00
2022-09-28T02:25:36.267Z,100.00
2022-09-28T02:28:42.135Z,100.00
2022-09-28T02:31:47.726Z,100.00
2022-09-28T02:34:53.056Z,100.00
2022-09-28T02:37:58.654Z,100.00
2022-09-28T02:41:06.995Z,100.00
2022-09-28T02:44:19.426Z,100.00
2022-09-28T02:47:33.146Z,100.00
2022-09-28T02:50:45.298Z,100.00
2022-09-28T02:54:18.829Z,100.00
2022-09-28T02:57:32.556Z,100.00
2022-09-28T03:00:42.115Z,100.00
2022-09-28T03:03:50.430Z,100.00
2022-09-28T03:07:00.493Z,100.00
2022-09-28T03:10:09.774Z,100.00
2022-09-28T03:13:16.553Z,100.00
2022-09-28T03:16:21.955Z,100.00
2022-09-28T03:19:30.120Z,100.00
2022-09-28T03:22:35.417Z,100.00
2022-09-28T03:25:40.816Z,100.00
2022-09-28T03:28:46.124Z,100.00
2022-09-28T03:31:54.995Z,100.00
2022-09-28T03:35:02.784Z,100.00
2022-09-28T03:38:08.442Z,100.00
2022-09-28T03:41:17.110Z,100.00
2022-09-28T03:44:22.828Z,100.00
2022-09-28T03:47:28.857Z,100.00
2022-09-28T03:50:35.905Z,100.00
2022-09-28T03:53:41.708Z,100.00
2022-09-28T03:56:47.089Z,100.00
2022-09-28T03:59:52.408Z,100.00
2022-09-28T04:02:57.632Z,100.00
2022-09-28T04:06:04.135Z,100.00
2022-09-28T04:09:09.444Z,100.00
2022-09-28T04:12:14.829Z,100.00
2022-09-28T04:15:20.056Z,100.00
2022-09-28T04:18:26.036Z,100.00
2022-09-28T04:21:51.092Z,100.00
2022-09-28T04:24:56.323Z,100.00
2022-09-28T04:28:19.953Z,100.00
2022-09-28T04:31:25.618Z,100.00
2022-09-28T04:34:35.746Z,100.00
2022-09-28T04:37:42.619Z,100.00
2022-09-28T04:40:49.867Z,100.00
2022-09-28T04:43:55.236Z,100.00
2022-09-28T04:47:05.301Z,100.00
2022-09-28T04:50:12.350Z,100.00
2022-09-28T04:53:39.688Z,100.00
2022-09-28T04:56:45.067Z,100.00
2022-09-28T04:59:51.201Z,100.00
2022-09-28T05:02:59.457Z,100.00
2022-09-28T05:06:28.054Z,100.00
2022-09-28T05:09:39.129Z,100.00
2022-09-28T05:12:44.545Z,100.00
2022-09-28T05:15:57.047Z,100.00
2022-09-28T05:19:06.194Z,100.00
2022-09-28T05:22:14.915Z,100.00
2022-09-28T05:25:24.409Z,100.00
2022-09-28T05:28:55.771Z,100.00
2022-09-28T05:32:19.896Z,100.00
2022-09-28T05:35:37.442Z,100.00
2022-09-28T05:38:43.041Z,100.00
2022-09-28T05:41:48.268Z,100.00
2022-09-28T05:44:53.626Z,100.00
2022-09-28T05:47:59.079Z,100.00
2022-09-28T05:51:04.516Z,100.00
2022-09-28T05:54:10.761Z,100.00
2022-09-28T05:57:20.080Z,100.00
2022-09-28T06:00:25.421Z,100.00
2022-09-28T06:03:31.225Z,100.00
2022-09-28T06:06:38.410Z,100.00
2022-09-28T06:09:43.834Z,100.00
2022-09-28T06:13:21.704Z,100.00
2022-09-28T06:16:27.499Z,100.00
2022-09-28T06:19:32.944Z,100.00
2022-09-28T06:22:46.339Z,100.00
2022-09-28T06:25:51.735Z,100.00
2022-09-28T06:28:56.933Z,100.00
2022-09-28T06:32:02.456Z,100.00
2022-09-28T06:35:10.048Z,100.00
2022-09-28T06:38:15.494Z,100.00
2022-09-28T06:41:20.959Z,100.00
2022-09-28T06:44:26.476Z,100.00
2022-09-28T06:47:58.429Z,100.00
2022-09-28T06:51:10.423Z,100.00
2022-09-28T06:54:31.759Z,100.00
2022-09-28T06:57:46.244Z,100.00
2022-09-28T07:00:52.455Z,100.00
2022-09-28T07:03:58.018Z,100.00
2022-09-28T07:07:23.403Z,100.00
2022-09-28T07:10:56.397Z,100.00
2022-09-28T07:14:09.562Z,100.00
2022-09-28T07:17:17.103Z,100.00
2022-09-28T07:20:22.547Z,100.00
2022-09-28T07:23:29.939Z,100.00
2022-09-28T07:26:55.363Z,100.00
2022-09-28T07:30:13.014Z,100.00
2022-09-28T07:33:54.163Z,100.00
2022-09-28T07:37:11.553Z,100.00
2022-09-28T07:40:34.770Z,100.00
2022-09-28T07:43:41.867Z,100.00
2022-09-28T07:46:47.544Z,100.00
2022-09-28T07:49:59.893Z,100.00
2022-09-28T07:53:31.630Z,100.00
2022-09-28T07:56:49.336Z,100.00
2022-09-28T08:00:02.417Z,99.94
2022-09-28T08:03:22.530Z,99.36
2022-09-28T08:06:27.855Z,98.24
2022-09-28T08:09:33.342Z,96.94
2022-09-28T08:13:00.561Z,95.67
2022-09-28T08:16:30.334Z,94.58
2022-09-28T08:20:04.993Z,94.31
2022-09-28T08:23:13.315Z,93.00
2022-09-28T08:26:19.674Z,91.69
2022-09-28T08:29:31.947Z,91.42
2022-09-28T08:32:54.885Z,89.41
2022-09-28T08:36:19.055Z,88.12
2022-09-28T08:39:39.778Z,87.35
2022-09-28T08:43:23.216Z,86.39
2022-09-28T08:47:02.144Z,86.68
2022-09-28T08:50:40.045Z,85.41
2022-09-28T08:54:05.760Z,85.18
2022-09-28T08:57:28.847Z,85.68
2022-09-28T09:00:37.746Z,84.49
2022-09-28T09:03:44.903Z,85.16
2022-09-28T09:07:22.016Z,85.82
2022-09-28T09:10:47.775Z,84.66
2022-09-28T09:14:02.955Z,83.79
2022-09-28T09:17:15.944Z,83.92
2022-09-28T09:20:57.075Z,82.33
2022-09-28T09:24:27.183Z,81.56
2022-09-28T09:27:43.308Z,81.40
2022-09-28T09:30:55.378Z,81.34
2022-09-28T09:34:27.095Z,81.62
2022-09-28T09:37:58.738Z,81.73
2022-09-28T09:41:40.005Z,80.52
2022-09-28T09:45:07.794Z,79.95
2022-09-28T09:48:50.067Z,79.46
2022-09-28T09:52:01.093Z,77.45
2022-09-28T09:55:14.530Z,75.86
2022-09-28T09:58:30.322Z,74.41
2022-09-28T10:01:46.084Z,73.78
2022-09-28T10:05:01.121Z,73.51
2022-09-28T10:08:16.329Z,73.25
2022-09-28T10:11:27.899Z,70.57
2022-09-28T10:14:33.917Z,69.04
2022-09-28T10:17:42.166Z,70.38
2022-09-28T10:21:07.032Z,70.00
2022-09-28T10:24:30.876Z,69.58
2022-09-28T10:27:37.520Z,68.20
2022-09-28T10:30:44.431Z,66.75
2022-09-28T10:33:54.307Z,65.54
2022-09-28T10:37:01.409Z,64.47
2022-09-28T10:40:28.377Z,63.90
2022-09-28T10:43:34.959Z,64.21
2022-09-28T10:46:43.040Z,62.67
2022-09-28T10:49:55.893Z,59.51
2022-09-28T10:53:13.781Z,60.05
2022-09-28T10:56:41.417Z,59.85
2022-09-28T10:59:48.005Z,58.51
2022-09-28T11:03:22.023Z,58.00
2022-09-28T11:06:29.352Z,59.10
2022-09-28T11:09:42.654Z,55.93
2022-09-28T11:12:50.805Z,55.34
2022-09-28T11:15:57.180Z,54.16
2022-09-28T11:19:30.194Z,54.27
2022-09-28T11:22:41.897Z,56.01
2022-09-28T11:25:59.572Z,56.86
2022-09-28T11:29:05.432Z,56.06
2022-09-28T11:32:19.885Z,55.44
2022-09-28T11:36:00.768Z,54.15
2022-09-28T11:39:09.718Z,55.72
2022-09-28T11:42:30.355Z,56.04
2022-09-28T11:45:46.513Z,55.28
2022-09-28T11:48:56.047Z,54.65
2022-09-28T11:52:04.211Z,54.99
2022-09-28T11:55:13.457Z,55.18
2022-09-28T11:58:28.879Z,55.93
2022-09-28T12:01:38.281Z,56.08
2022-09-28T12:04:56.001Z,55.06
2022-09-28T12:08:05.252Z,55.30
2022-09-28T12:11:38.539Z,55.20
2022-09-28T12:15:06.329Z,55.46
2022-09-28T12:18:16.134Z,56.03
2022-09-28T12:21:29.274Z,55.94
2022-09-28T12:24:39.972Z,55.43
2022-09-28T12:27:49.241Z,54.72
2022-09-28T12:30:55.987Z,54.94
2022-09-28T12:34:03.085Z,55.38
2022-09-28T12:37:18.685Z,56.58
2022-09-28T12:40:43.915Z,56.72
2022-09-28T12:43:58.081Z,56.68
2022-09-28T12:47:14.955Z,56.91
2022-09-28T12:50:42.829Z,56.91
2022-09-28T12:54:01.571Z,56.73
2022-09-28T12:57:19.477Z,57.31
2022-09-28T13:00:25.942Z,57.85
2022-09-28T13:03:41.251Z,58.50
2022-09-28T13:06:53.528Z,58.94
2022-09-28T13:10:05.920Z,59.27
2022-09-28T13:13:20.686Z,59.81
2022-09-28T13:16:30.479Z,59.98
2022-09-28T13:19:39.591Z,60.13
2022-09-28T13:22:50.087Z,60.62
2022-09-28T13:25:58.469Z,61.17
2022-09-28T13:29:06.297Z,61.59
2022-09-28T13:32:13.969Z,61.84
2022-09-28T13:35:20.546Z,62.08
2022-09-28T13:38:44.906Z,62.81
2022-09-28T13:41:50.915Z,63.76
2022-09-28T13:45:09.577Z,64.70
2022-09-28T13:48:17.481Z,65.82
2022-09-28T13:51:39.592Z,66.83
2022-09-28T13:55:03.711Z,67.43
2022-09-28T13:58:16.225Z,67.48
2022-09-28T14:01:35.580Z,67.68
2022-09-28T14:04:58.384Z,68.60
2022-09-28T14:08:20.915Z,69.15
2022-09-28T14:11:42.809Z,69.31
2022-09-28T14:14:51.465Z,70.23
2022-09-28T14:18:00.399Z,69.09
2022-09-28T14:21:19.114Z,69.46
2022-09-28T14:24:30.803Z,72.00
2022-09-28T14:27:56.095Z,74.51
2022-09-28T14:31:07.833Z,77.37
2022-09-28T14:34:41.529Z,79.64
2022-09-28T14:38:06.924Z,80.84
2022-09-28T14:41:34.012Z,82.14
2022-09-28T14:45:06.674Z,82.76
2022-09-28T14:48:21.766Z,83.74
2022-09-28T14:51:46.844Z,84.42
2022-09-28T14:54:55.374Z,85.17
2022-09-28T14:58:03.253Z,85.50
2022-09-28T15:01:21.403Z,85.96
2022-09-28T15:04:29.397Z,86.51
2022-09-28T15:07:47.721Z,87.13
2022-09-28T15:10:53.592Z,87.62
2022-09-28T15:14:10.738Z,87.88
2022-09-28T15:17:21.280Z,88.07
2022-09-28T15:20:30.125Z,87.98
2022-09-28T15:23:39.668Z,88.47
2022-09-28T15:26:49.219Z,88.67
2022-09-28T15:30:01.262Z,89.05
2022-09-28T15:33:24.838Z,88.85
2022-09-28T15:36:31.312Z,89.48
2022-09-28T15:39:36.794Z,89.51
2022-09-28T15:42:42.134Z,89.70
2022-09-28T15:45:58.716Z,90.31
2022-09-28T15:49:04.982Z,90.93
2022-09-28T15:52:23.236Z,91.18
2022-09-28T15:55:30.581Z,91.67
2022-09-28T15:58:35.983Z,92.80
2022-09-28T16:01:42.486Z,93.18
2022-09-28T16:04:51.838Z,93.37
2022-09-28T16:07:57.372Z,93.75
2022-09-28T16:11:09.146Z,93.72
2022-09-28T16:14:19.884Z,93.92
2022-09-28T16:17:33.637Z,94.10
2022-09-28T16:20:41.520Z,94.27
2022-09-28T16:23:51.231Z,94.43
2022-09-28T16:27:01.055Z,94.62
2022-09-28T16:30:16.770Z,94.38
2022-09-28T16:33:29.879Z,94.64
2022-09-28T16:36:43.464Z,94.08
2022-09-28T16:39:48.856Z,93.95
2022-09-28T16:42:56.295Z,94.28
2022-09-28T16:46:02.589Z,94.87
2022-09-28T16:49:08.394Z,95.04
2022-09-28T16:52:34.831Z,95.19
2022-09-28T16:55:41.185Z,95.45
2022-09-28T16:58:50.214Z,95.99
2022-09-28T17:01:56.642Z,96.11
2022-09-28T17:05:02.002Z,96.48
2022-09-28T17:08:07.695Z,96.59
2022-09-28T17:11:17.983Z,96.93
2022-09-28T17:14:25.842Z,97.31
2022-09-28T17:17:31.595Z,97.68
2022-09-28T17:20:37.692Z,97.96
2022-09-28T17:23:43.219Z,98.06
2022-09-28T17:26:50.375Z,98.19
2022-09-28T17:29:55.861Z,98.22
2022-09-28T17:33:01.846Z,97.98
2022-09-28T17:36:08.138Z,97.89
2022-09-28T17:39:14.528Z,97.84
2022-09-28T17:42:19.635Z,97.69
2022-09-28T17:45:25.961Z,97.79
2022-09-28T17:48:32.078Z,97.70
2022-09-28T17:51:38.563Z,98.13
2022-09-28T17:54:44.299Z,98.41
2022-09-28T17:57:50.539Z,98.73
2022-09-28T18:00:55.961Z,98.81
2022-09-28T18:04:02.248Z,99.07
2022-09-28T18:07:07.878Z,99.61
2022-09-28T18:10:16.087Z,99.89
2022-09-28T18:13:21.590Z,99.95
2022-09-28T18:16:28.058Z,100.00
2022-09-28T18:19:33.460Z,100.00
2022-09-28T18:22:41.412Z,100.00
2022-09-28T18:25:47.330Z,100.00
2022-09-28T18:28:54.645Z,100.00
2022-09-28T18:32:00.008Z,100.00
2022-09-28T18:35:05.919Z,100.00
2022-09-28T18:38:11.925Z,100.00
2022-09-28T18:41:17.759Z,100.00
2022-09-28T18:44:23.066Z,100.00
2022-09-28T18:47:28.559Z,100.00
2022-09-28T18:50:34.411Z,100.00
2022-09-28T18:53:39.767Z,100.00
2022-09-28T18:56:45.083Z,100.00
2022-09-28T18:59:50.410Z,100.00
2022-09-28T19:02:55.825Z,100.00
2022-09-28T19:06:01.203Z,100.00
2022-09-28T19:09:06.515Z,100.00
2022-09-28T19:12:12.029Z,100.00
2022-09-28T19:15:18.633Z,100.00
2022-09-28T19:18:24.054Z,100.00
2022-09-28T19:21:29.377Z,100.00
2022-09-28T19:24:34.776Z,100.00
2022-09-28T19:27:40.275Z,100.00
2022-09-28T19:30:45.637Z,100.00
2022-09-28T19:33:51.138Z,100.00
2022-09-28T19:36:56.487Z,100.00
2022-09-28T19:40:02.001Z,100.00
2022-09-28T19:43:07.336Z,100.00
2022-09-28T19:46:13.268Z,100.00
2022-09-28T19:49:22.274Z,100.00
2022-09-28T19:52:27.619Z,100.00
2022-09-28T19:55:37.135Z,100.00
2022-09-28T19:58:42.571Z,100.00
2022-09-28T20:01:47.927Z,100.00
2022-09-28T20:04:53.392Z,100.00
2022-09-28T20:07:58.700Z,100.00
2022-09-28T20:11:03.971Z,100.00
2022-09-28T20:14:09.894Z,100.00
2022-09-28T20:17:15.443Z,100.00
2022-09-28T20:20:20.548Z,100.00
2022-09-28T20:23:27.184Z,100.00
2022-09-28T20:26:37.342Z,100.00
2022-09-28T20:29:43.203Z,100.00
2022-09-28T20:32:49.722Z,100.00
2022-09-28T20:35:56.006Z,100.00
2022-09-28T20:39:02.831Z,100.00
2022-09-28T20:42:08.667Z,100.00
2022-09-28T20:45:13.975Z,100.00
2022-09-28T20:48:19.827Z,100.00
2022-09-28T20:51:25.341Z,100.00
2022-09-28T20:54:31.196Z,100.00
2022-09-28T20:57:36.434Z,100.00
2022-09-28T21:00:41.764Z,100.00
2022-09-28T21:03:48.829Z,100.00
2022-09-28T21:06:54.088Z,100.00
2022-09-28T21:09:59.455Z,100.00
2022-09-28T21:13:04.733Z,100.00
2022-09-28T21:16:11.343Z,100.00
2022-09-28T21:19:16.553Z,100.00
2022-09-28T21:22:21.950Z,100.00
2022-09-28T21:25:27.110Z,100.00
2022-09-28T21:28:32.338Z,100.00
2022-09-28T21:31:40.271Z,100.00
2022-09-28T21:34:46.254Z,100.00
2022-09-28T21:37:51.923Z,100.00
2022-09-28T21:40:57.678Z,100.00
2022-09-28T21:44:03.227Z,100.00
2022-09-28T21:47:08.649Z,100.00
2022-09-28T21:50:13.987Z,100.00
2022-09-28T21:53:19.315Z,100.00
2022-09-28T21:56:24.624Z,100.00
2022-09-28T21:59:30.392Z,100.00
2022-09-28T22:02:38.306Z,100.00
2022-09-28T22:05:43.596Z,100.00
2022-09-28T22:08:49.601Z,100.00
2022-09-28T22:11:54.747Z,100.00
2022-09-28T22:15:00.249Z,100.00
2022-09-28T22:18:05.701Z,100.00
2022-09-28T22:21:11.754Z,100.00
2022-09-28T22:24:17.135Z,100.00
2022-09-28T22:27:22.525Z,100.00
2022-09-28T22:30:27.812Z,100.00
2022-09-28T22:33:34.252Z,100.00
2022-09-28T22:36:40.746Z,100.00
2022-09-28T22:39:45.947Z,100.00
2022-09-28T22:42:51.178Z,100.00
2022-09-28T22:46:03.347Z,100.00
2022-09-28T22:49:11.081Z,100.00
2022-09-28T22:52:16.347Z,100.00
2022-09-28T22:55:21.681Z,100.00
2022-09-28T22:58:27.179Z,100.00
2022-09-28T23:01:32.425Z,100.00
2022-09-28T23:04:37.749Z,100.00
2022-09-28T23:07:43.695Z,100.00
2022-09-28T23:10:49.059Z,100.00
2022-09-28T23:13:55.923Z,100.00
2022-09-28T23:17:01.228Z,100.00
2022-09-28T23:20:07.026Z,100.00
2022-09-28T23:23:12.384Z,100.00
2022-09-28T23:26:18.642Z,100.00
2022-09-28T23:29:24.078Z,100.00
2022-09-28T23:32:32.040Z,100.00
2022-09-28T23:35:37.671Z,100.00
2022-09-28T23:38:43.066Z,100.00
2022-09-28T23:41:48.306Z,100.00
2022-09-28T23:44:53.444Z,100.00
2022-09-28T23:47:58.944Z,100.00
2022-09-28T23:51:04.680Z,100.00
2022-09-28T23:54:10.204Z,100.00
2022-09-28T23:57:15.834Z,100.00
